Time;durP1;ratioP1;P1;durP2;ratioP2;P2;SDS_P1;SDS_P2;PMS_P1;PMS_P2;Temp;Humidity;BMP_temperature;BMP_pressure;BME280_temperature;BME280_humidity;BME280_pressure;Samples;Min_cycle;Max_cycle;Signal;HPM_P1;HPM_P2
2022/04/29 00:01:23;;;;;;;2.92;2.70;;;;;;;;;;4984082;28;20635;-84
2022/04/29 00:03:53;;;;;;;5.10;3.13;;;;;;;;;;4979009;28;20205;-85
2022/04/29 00:06:22;;;;;;;5.75;3.00;;;;;;;;;;4974594;28;20290;-85
2022/04/29 00:08:49;;;;;;;4.78;2.60;;;;;;;;;;4980621;28;20667;-83
2022/04/29 00:11:16;;;;;;;3.55;2.40;;;;;;;;;;4960137;28;20198;-81
2022/04/29 00:13:47;;;;;;;4.13;2.55;;;;;;;;;;4961691;28;20680;-85
2022/04/29 00:16:14;;;;;;;3.63;2.42;;;;;;;;;;4963240;28;20201;-83
2022/04/29 00:18:43;;;;;;;3.72;2.13;;;;;;;;;;4976344;28;20232;-83
2022/04/29 00:21:11;;;;;;;6.50;3.38;;;;;;;;;;4975213;28;20211;-83
2022/04/29 00:23:39;;;;;;;3.38;2.95;;;;;;;;;;4970164;28;20218;-83
2022/04/29 00:26:07;;;;;;;8.02;3.17;;;;;;;;;;4976957;28;20667;-83
2022/04/29 00:28:34;;;;;;;6.95;3.50;;;;;;;;;;4970599;28;20299;-83
2022/04/29 00:31:02;;;;;;;3.72;2.92;;;;;;;;;;4979802;28;20208;-83
2022/04/29 00:33:31;;;;;;;4.43;2.58;;;;;;;;;;4952224;28;20197;-84
2022/04/29 00:35:59;;;;;;;2.67;2.47;;;;;;;;;;4965736;28;20656;-84
2022/04/29 00:38:28;;;;;;;7.38;2.70;;;;;;;;;;4965432;28;20678;-85
2022/04/29 00:40:58;;;;;;;2.72;2.53;;;;;;;;;;4978856;28;20204;-82
2022/04/29 00:43:25;;;;;;;5.07;3.15;;;;;;;;;;4973455;28;20197;-83
2022/04/29 00:45:52;;;;;;;6.18;2.20;;;;;;;;;;4964667;28;20194;-87
2022/04/29 00:48:19;;;;;;;3.00;2.70;;;;;;;;;;4970290;28;20225;-87
2022/04/29 00:50:50;;;;;;;2.47;2.17;;;;;;;;;;4981671;28;20215;-85
2022/04/29 00:53:18;;;;;;;3.58;2.70;;;;;;;;;;4987133;28;20690;-83
2022/04/29 00:55:46;;;;;;;5.72;3.10;;;;;;;;;;4973769;28;20215;-84
2022/04/29 00:58:17;;;;;;;2.63;2.40;;;;;;;;;;4989389;28;20201;-86
2022/04/29 01:00:44;;;;;;;3.17;2.35;;;;;;;;;;4985017;28;20201;-81
2022/04/29 01:03:12;;;;;;;4.75;3.15;;;;;;;;;;4987955;28;20625;-81
2022/04/29 01:05:40;;;;;;;4.40;2.40;;;;;;;;;;4980520;28;20832;-81
2022/04/29 01:08:07;;;;;;;5.32;2.60;;;;;;;;;;4975904;28;20228;-81
2022/04/29 01:10:35;;;;;;;3.15;2.38;;;;;;;;;;4983542;28;20193;-80
2022/04/29 01:13:03;;;;;;;5.10;3.05;;;;;;;;;;4970099;28;20574;-80
2022/04/29 01:15:32;;;;;;;4.10;2.85;;;;;;;;;;4975745;28;20211;-80
2022/04/29 01:18:02;;;;;;;2.40;2.20;;;;;;;;;;4974818;28;20197;-83
2022/04/29 01:20:30;;;;;;;5.45;2.78;;;;;;;;;;4971904;28;20553;-82
2022/04/29 01:23:05;;;;;;;3.90;2.80;;;;;;;;;;4970800;28;20201;-84
2022/04/29 01:25:33;;;;;;;6.10;2.30;;;;;;;;;;4967625;28;20206;-85
2022/04/29 01:28:01;;;;;;;3.45;2.88;;;;;;;;;;4981472;28;20245;-86
2022/04/29 01:30:31;;;;;;;2.72;2.53;;;;;;;;;;4968386;28;20210;-83
2022/04/29 01:33:09;;;;;;;3.75;2.40;;;;;;;;;;4976449;28;20222;-83
2022/04/29 01:35:36;;;;;;;3.85;2.90;;;;;;;;;;4965773;28;20214;-84
2022/04/29 01:38:06;;;;;;;4.40;2.60;;;;;;;;;;4972866;28;20204;-84
2022/04/29 01:40:42;;;;;;;3.83;2.63;;;;;;;;;;4950874;28;20205;-84
2022/04/29 01:43:10;;;;;;;3.63;2.28;;;;;;;;;;4972453;28;20671;-84
2022/04/29 01:45:40;;;;;;;4.65;3.10;;;;;;;;;;4962913;28;20292;-85
2022/04/29 01:48:10;;;;;;;4.10;2.35;;;;;;;;;;4974351;28;20218;-85
2022/04/29 01:50:40;;;;;;;3.67;2.30;;;;;;;;;;4973873;28;20204;-85
2022/04/29 01:53:11;;;;;;;4.97;2.13;;;;;;;;;;4974319;28;20232;-86
2022/04/29 01:55:40;;;;;;;5.30;2.38;;;;;;;;;;4978717;28;20193;-85
2022/04/29 01:58:11;;;;;;;6.28;2.30;;;;;;;;;;4979851;28;20208;-85
2022/04/29 02:00:38;;;;;;;6.57;2.72;;;;;;;;;;4965287;28;20226;-85
2022/04/29 02:03:09;;;;;;;2.85;2.30;;;;;;;;;;4974498;28;20557;-84
2022/04/29 02:05:36;;;;;;;2.90;2.58;;;;;;;;;;4969388;28;20661;-85
2022/04/29 02:08:04;;;;;;;3.28;2.40;;;;;;;;;;4979286;28;20266;-84
2022/04/29 02:10:34;;;;;;;4.13;2.50;;;;;;;;;;4974580;28;20232;-85
2022/04/29 02:13:02;;;;;;;3.60;2.78;;;;;;;;;;4971607;28;20556;-82
2022/04/29 02:15:29;;;;;;;4.00;2.50;;;;;;;;;;4977466;28;20664;-85
2022/04/29 02:17:56;;;;;;;4.00;2.20;;;;;;;;;;4981633;28;20194;-84
2022/04/29 02:20:24;;;;;;;2.95;2.65;;;;;;;;;;4966834;28;20206;-83
2022/04/29 02:25:37;;;;;;;6.00;2.70;;;;;;;;;;4970855;28;20317;-84
2022/04/29 02:28:05;;;;;;;4.35;2.60;;;;;;;;;;4969108;28;20221;-83
2022/04/29 02:30:33;;;;;;;3.00;2.70;;;;;;;;;;4966432;28;20652;-83
2022/04/29 02:33:00;;;;;;;5.30;3.20;;;;;;;;;;4976529;28;20204;-83
2022/04/29 02:35:27;;;;;;;3.38;1.83;;;;;;;;;;4978484;28;20663;-85
2022/04/29 02:37:54;;;;;;;4.70;3.20;;;;;;;;;;4980977;28;20850;-85
2022/04/29 02:40:23;;;;;;;6.00;2.83;;;;;;;;;;4981331;28;20215;-84
2022/04/29 02:42:54;;;;;;;5.30;2.40;;;;;;;;;;4967030;28;20225;-84
2022/04/29 02:45:21;;;;;;;4.05;3.05;;;;;;;;;;4973455;28;20571;-83
2022/04/29 02:47:48;;;;;;;5.57;2.40;;;;;;;;;;4975210;28;20687;-83
2022/04/29 02:50:17;;;;;;;8.63;2.72;;;;;;;;;;4973255;28;20284;-83
2022/04/29 02:52:50;;;;;;;3.33;2.88;;;;;;;;;;4978501;28;20201;-83
2022/04/29 02:55:17;;;;;;;3.95;2.17;;;;;;;;;;4972939;28;20240;-83
2022/04/29 02:57:46;;;;;;;2.40;2.20;;;;;;;;;;4979502;28;20193;-83
2022/04/29 03:00:21;;;;;;;4.18;2.80;;;;;;;;;;4982883;28;20198;-83
2022/04/29 03:02:52;;;;;;;2.72;2.42;;;;;;;;;;4983172;28;20278;-84
2022/04/29 03:05:20;;;;;;;2.60;2.40;;;;;;;;;;4968746;28;20214;-84
2022/04/29 03:07:48;;;;;;;2.53;2.33;;;;;;;;;;4976796;28;20230;-85
2022/04/29 03:10:15;;;;;;;4.97;2.42;;;;;;;;;;4970195;28;20264;-84
2022/04/29 03:12:46;;;;;;;5.43;2.67;;;;;;;;;;4975525;28;20212;-85
2022/04/29 03:15:19;;;;;;;3.33;2.50;;;;;;;;;;4971933;28;20203;-84
2022/04/29 03:20:39;;;;;;;3.97;2.60;;;;;;;;;;4963631;28;20707;-84
2022/04/29 03:23:07;;;;;;;3.97;2.13;;;;;;;;;;4968109;28;20666;-84
2022/04/29 03:25:35;;;;;;;4.07;3.30;;;;;;;;;;4974494;28;20202;-84
2022/04/29 03:28:05;;;;;;;3.60;3.03;;;;;;;;;;4975528;28;20220;-84
2022/04/29 03:30:33;;;;;;;4.95;3.42;;;;;;;;;;4972380;28;20675;-84
2022/04/29 03:33:12;;;;;;;2.50;2.30;;;;;;;;;;4979697;28;20521;-85
2022/04/29 03:35:42;;;;;;;4.15;2.22;;;;;;;;;;4974801;28;20200;-81
2022/04/29 03:38:11;;;;;;;6.53;3.88;;;;;;;;;;4972536;28;20294;-81
2022/04/29 03:40:44;;;;;;;11.43;2.63;;;;;;;;;;4970491;28;20212;-84
2022/04/29 03:43:12;;;;;;;4.43;3.30;;;;;;;;;;4971149;28;20679;-85
2022/04/29 03:45:45;;;;;;;4.10;3.10;;;;;;;;;;4971550;28;20639;-87
2022/04/29 03:48:19;;;;;;;4.15;2.88;;;;;;;;;;4944081;28;20291;-86
2022/04/29 03:50:49;;;;;;;2.70;2.20;;;;;;;;;;4969986;28;20233;-84
2022/04/29 03:53:18;;;;;;;4.43;2.50;;;;;;;;;;4984406;28;20710;-85
2022/04/29 03:55:50;;;;;;;4.07;2.67;;;;;;;;;;4965782;28;20198;-85
2022/04/29 03:58:17;;;;;;;5.10;2.95;;;;;;;;;;4959099;28;20588;-84
2022/04/29 04:00:44;;;;;;;4.72;2.80;;;;;;;;;;4970742;28;20209;-83
2022/04/29 04:03:11;;;;;;;5.32;3.10;;;;;;;;;;4972460;28;20196;-82
2022/04/29 04:06:49;;;;;;;5.25;2.83;;;;;;;;;;4977728;28;20636;-82
2022/04/29 04:08:31;;;;;;;8.15;3.05;;;;;;;;;;4968702;28;20779;-82
2022/04/29 04:10:59;;;;;;;2.95;2.20;;;;;;;;;;4970194;28;20288;-83
2022/04/29 04:13:26;;;;;;;4.53;2.78;;;;;;;;;;4971166;28;20209;-83
2022/04/29 04:15:53;;;;;;;2.55;2.35;;;;;;;;;;4975268;28;20205;-83
2022/04/29 04:18:20;;;;;;;4.22;2.75;;;;;;;;;;4969726;28;20225;-83
2022/04/29 04:20:49;;;;;;;3.95;3.20;;;;;;;;;;4977205;28;20292;-83
2022/04/29 04:23:17;;;;;;;2.97;2.65;;;;;;;;;;4964404;28;20210;-83
2022/04/29 04:25:46;;;;;;;4.18;2.80;;;;;;;;;;4973531;28;20315;-82
2022/04/29 04:28:14;;;;;;;3.38;2.95;;;;;;;;;;4973680;28;20248;-83
2022/04/29 04:30:41;;;;;;;12.93;4.25;;;;;;;;;;4976397;28;20205;-83
2022/04/29 04:33:08;;;;;;;7.50;2.70;;;;;;;;;;4977248;28;20208;-82
2022/04/29 04:35:38;;;;;;;4.07;3.33;;;;;;;;;;4977505;28;20208;-86
2022/04/29 04:38:09;;;;;;;4.63;3.25;;;;;;;;;;4972662;28;20206;-84
2022/04/29 04:40:36;;;;;;;3.90;2.92;;;;;;;;;;4966876;28;20245;-84
2022/04/29 04:43:12;;;;;;;6.80;3.45;;;;;;;;;;4966047;28;20213;-84
2022/04/29 04:45:42;;;;;;;4.40;3.10;;;;;;;;;;4965737;28;20205;-85
2022/04/29 04:48:09;;;;;;;3.08;2.60;;;;;;;;;;4977575;28;20758;-85
2022/04/29 04:50:37;;;;;;;5.13;3.15;;;;;;;;;;4969083;28;20205;-84
2022/04/29 04:53:07;;;;;;;3.33;3.00;;;;;;;;;;4962686;28;20213;-85
2022/04/29 04:55:40;;;;;;;5.40;3.80;;;;;;;;;;4972299;28;20197;-85
2022/04/29 04:58:08;;;;;;;6.20;3.78;;;;;;;;;;4964184;28;20193;-85
2022/04/29 05:00:36;;;;;;;6.25;3.05;;;;;;;;;;4964336;28;20665;-85
2022/04/29 05:03:05;;;;;;;3.38;2.80;;;;;;;;;;4973441;28;20198;-85
2022/04/29 05:05:34;;;;;;;4.28;3.85;;;;;;;;;;4966294;28;20228;-83
2022/04/29 05:08:01;;;;;;;8.77;3.33;;;;;;;;;;4963764;28;20208;-84
2022/04/29 05:10:28;;;;;;;8.50;3.88;;;;;;;;;;4961447;28;20198;-85
2022/04/29 05:12:58;;;;;;;5.13;3.88;;;;;;;;;;4971779;28;20190;-84
2022/04/29 05:15:31;;;;;;;6.03;2.97;;;;;;;;;;4959122;28;20652;-84
2022/04/29 05:18:05;;;;;;;3.35;3.05;;;;;;;;;;4971222;28;20212;-84
2022/04/29 05:20:32;;;;;;;3.03;2.72;;;;;;;;;;4983773;28;20205;-85
2022/04/29 05:22:59;;;;;;;3.20;2.90;;;;;;;;;;4957941;28;20239;-85
2022/04/29 05:25:30;;;;;;;3.90;3.47;;;;;;;;;;4974533;28;20206;-85
2022/04/29 05:28:00;;;;;;;5.40;4.20;;;;;;;;;;4974489;28;20293;-85
2022/04/29 05:30:28;;;;;;;9.27;3.53;;;;;;;;;;4967410;28;20213;-85
2022/04/29 05:32:59;;;;;;;8.00;3.70;;;;;;;;;;4984051;28;20205;-85
2022/04/29 05:35:26;;;;;;;5.35;3.30;;;;;;;;;;4978592;28;20205;-83
2022/04/29 05:37:53;;;;;;;3.13;2.50;;;;;;;;;;4978921;28;20288;-85
2022/04/29 05:43:14;;;;;;;4.15;3.75;;;;;;;;;;4974122;28;20680;-82
2022/04/29 05:45:41;;;;;;;3.92;3.53;;;;;;;;;;4970354;28;20196;-80
2022/04/29 05:48:08;;;;;;;7.65;3.60;;;;;;;;;;4978776;28;20201;-80
2022/04/29 05:50:35;;;;;;;7.78;3.40;;;;;;;;;;4964737;28;20213;-81
2022/04/29 05:53:03;;;;;;;7.35;4.40;;;;;;;;;;4955410;28;20206;-82
2022/04/29 05:55:30;;;;;;;4.28;3.05;;;;;;;;;;4959662;28;20204;-82
2022/04/29 05:57:57;;;;;;;7.65;3.85;;;;;;;;;;4957578;28;20205;-80
2022/04/29 06:00:25;;;;;;;8.13;3.63;;;;;;;;;;4959414;28;20209;-81
2022/04/29 06:02:53;;;;;;;5.43;3.63;;;;;;;;;;4971540;28;20198;-80
2022/04/29 06:05:20;;;;;;;6.63;4.68;;;;;;;;;;4975450;28;20611;-80
2022/04/29 06:07:47;;;;;;;8.40;5.07;;;;;;;;;;4976561;28;20232;-80
2022/04/29 06:10:15;;;;;;;6.50;4.15;;;;;;;;;;4973073;28;20216;-80
2022/04/29 06:12:42;;;;;;;5.35;3.10;;;;;;;;;;4971874;28;20204;-81
2022/04/29 06:15:15;;;;;;;4.50;3.83;;;;;;;;;;4977929;28;20208;-80
2022/04/29 06:17:44;;;;;;;3.67;3.38;;;;;;;;;;4985724;28;20197;-82
2022/04/29 06:20:12;;;;;;;4.28;2.97;;;;;;;;;;4977816;28;20203;-83
2022/04/29 06:22:43;;;;;;;3.08;2.83;;;;;;;;;;4968981;28;20206;-83
2022/04/29 06:25:10;;;;;;;4.65;3.00;;;;;;;;;;4976546;28;20194;-83
2022/04/29 06:27:37;;;;;;;5.85;3.30;;;;;;;;;;4970025;28;20203;-80
2022/04/29 06:30:05;;;;;;;6.93;3.63;;;;;;;;;;4966647;28;20579;-81
2022/04/29 06:32:32;;;;;;;9.18;3.83;;;;;;;;;;4974965;28;20198;-82
2022/04/29 06:35:00;;;;;;;3.15;2.58;;;;;;;;;;4970382;28;20225;-82
2022/04/29 06:37:27;;;;;;;6.60;4.00;;;;;;;;;;4969477;28;20202;-81
2022/04/29 06:39:54;;;;;;;8.32;3.95;;;;;;;;;;4962572;28;20222;-82
2022/04/29 06:42:21;;;;;;;3.45;2.72;;;;;;;;;;4985168;28;20220;-82
2022/04/29 06:44:48;;;;;;;7.68;3.47;;;;;;;;;;4968679;28;20206;-80
2022/04/29 06:47:15;;;;;;;4.93;3.03;;;;;;;;;;4986956;28;20201;-81
2022/04/29 06:49:42;;;;;;;3.35;2.33;;;;;;;;;;4975936;28;20229;-79
2022/04/29 06:52:11;;;;;;;5.00;3.15;;;;;;;;;;4980337;28;20201;-81
2022/04/29 06:54:38;;;;;;;4.57;3.15;;;;;;;;;;4963752;28;20592;-83
2022/04/29 06:57:06;;;;;;;4.75;2.92;;;;;;;;;;4977189;28;20201;-82
2022/04/29 06:59:33;;;;;;;6.82;3.40;;;;;;;;;;4977011;28;20209;-84
2022/04/29 07:02:01;;;;;;;3.45;3.15;;;;;;;;;;4978395;28;20208;-83
2022/04/29 07:04:29;;;;;;;4.10;2.60;;;;;;;;;;4953058;28;20281;-83
2022/04/29 07:06:57;;;;;;;5.20;3.58;;;;;;;;;;4970064;28;20198;-82
2022/04/29 07:09:25;;;;;;;4.10;3.70;;;;;;;;;;4979111;28;20237;-83
2022/04/29 07:11:55;;;;;;;4.03;2.95;;;;;;;;;;4966907;28;20688;-83
2022/04/29 07:14:22;;;;;;;6.95;2.90;;;;;;;;;;4970872;28;20202;-84
2022/04/29 07:16:49;;;;;;;4.53;2.92;;;;;;;;;;4979504;28;20209;-82
2022/04/29 07:19:16;;;;;;;3.10;2.78;;;;;;;;;;4993563;28;20203;-82
2022/04/29 07:21:44;;;;;;;3.28;2.83;;;;;;;;;;4964507;28;20296;-82
2022/04/29 07:24:12;;;;;;;3.75;2.30;;;;;;;;;;4976319;28;20201;-82
2022/04/29 07:26:40;;;;;;;6.50;3.28;;;;;;;;;;4986947;28;20208;-83
2022/04/29 07:29:08;;;;;;;3.40;3.10;;;;;;;;;;4987925;28;20217;-83
2022/04/29 07:31:35;;;;;;;5.10;2.70;;;;;;;;;;4980994;28;20288;-82
2022/04/29 07:34:02;;;;;;;5.20;3.33;;;;;;;;;;4986019;28;20201;-83
2022/04/29 07:42:01;;;;;;;8.90;3.05;;;;;;;;;;4972398;28;20307;-81
2022/04/29 07:44:28;;;;;;;4.68;2.80;;;;;;;;;;4983343;28;20568;-81
2022/04/29 07:46:55;;;;;;;4.32;2.65;;;;;;;;;;4987930;28;20204;-83
2022/04/29 07:49:22;;;;;;;3.50;2.97;;;;;;;;;;4972860;28;20316;-83
2022/04/29 07:51:49;;;;;;;4.72;2.85;;;;;;;;;;4973148;28;20649;-83
2022/04/29 07:54:16;;;;;;;4.30;3.05;;;;;;;;;;4970117;28;20222;-84
2022/04/29 07:56:43;;;;;;;4.20;2.63;;;;;;;;;;4978332;28;20204;-87
2022/04/29 07:59:12;;;;;;;3.47;2.33;;;;;;;;;;4982586;28;20201;-86
2022/04/29 08:01:43;;;;;;;7.30;3.05;;;;;;;;;;4981930;28;20209;-85
2022/04/29 08:04:11;;;;;;;8.13;3.15;;;;;;;;;;4980213;28;20201;-86
2022/04/29 08:06:39;;;;;;;3.58;2.33;;;;;;;;;;4979185;28;20224;-83
2022/04/29 08:09:08;;;;;;;4.45;2.15;;;;;;;;;;4973572;28;20205;-85
2022/04/29 08:11:35;;;;;;;2.67;2.38;;;;;;;;;;4989560;28;20644;-84
2022/04/29 08:14:06;;;;;;;3.90;2.38;;;;;;;;;;4979412;28;20676;-85
2022/04/29 08:16:35;;;;;;;2.28;2.08;;;;;;;;;;4969423;28;20224;-83
2022/04/29 08:19:03;;;;;;;3.70;1.90;;;;;;;;;;4974549;28;20212;-84
2022/04/29 08:21:30;;;;;;;2.72;2.10;;;;;;;;;;4966586;28;20210;-86
2022/04/29 08:23:57;;;;;;;3.00;2.10;;;;;;;;;;4974046;28;20205;-83
2022/04/29 08:26:24;;;;;;;3.33;1.90;;;;;;;;;;4975653;28;20550;-82
2022/04/29 08:28:54;;;;;;;4.10;2.50;;;;;;;;;;4979222;28;20679;-85
2022/04/29 08:31:21;;;;;;;4.63;3.30;;;;;;;;;;4977167;28;20713;-84
2022/04/29 08:33:50;;;;;;;6.10;3.28;;;;;;;;;;4979991;28;20636;-83
2022/04/29 08:36:17;;;;;;;3.22;2.83;;;;;;;;;;4971685;28;20228;-83
2022/04/29 08:38:44;;;;;;;4.82;2.55;;;;;;;;;;4975384;28;20229;-83
2022/04/29 08:41:11;;;;;;;3.47;2.90;;;;;;;;;;4970820;28;20228;-86
2022/04/29 08:43:39;;;;;;;3.03;2.05;;;;;;;;;;4971501;28;20209;-85
2022/04/29 08:46:08;;;;;;;2.65;2.45;;;;;;;;;;4966948;28;20197;-83
2022/04/29 08:48:36;;;;;;;12.00;2.92;;;;;;;;;;4971775;28;20654;-83
2022/04/29 08:51:05;;;;;;;3.42;2.42;;;;;;;;;;4974938;28;20217;-86
2022/04/29 08:53:34;;;;;;;3.75;1.88;;;;;;;;;;4976963;28;20225;-84
2022/04/29 08:58:47;;;;;;;6.30;2.85;;;;;;;;;;4969599;28;20205;-83
2022/04/29 09:01:16;;;;;;;7.70;3.00;;;;;;;;;;4967046;28;20553;-85
2022/04/29 09:03:44;;;;;;;4.35;2.90;;;;;;;;;;4974253;28;20201;-84
2022/04/29 09:06:14;;;;;;;2.97;2.28;;;;;;;;;;4980298;28;20221;-84
2022/04/29 09:08:42;;;;;;;2.50;1.77;;;;;;;;;;4973786;28;20707;-84
2022/04/29 09:11:09;;;;;;;2.92;2.63;;;;;;;;;;4975809;28;20220;-83
2022/04/29 09:13:38;;;;;;;4.90;2.97;;;;;;;;;;4974768;28;20787;-84
2022/04/29 09:16:06;;;;;;;4.35;2.60;;;;;;;;;;4975495;28;20200;-83
2022/04/29 09:18:34;;;;;;;4.20;2.35;;;;;;;;;;4979836;28;20204;-83
2022/04/29 09:21:02;;;;;;;3.22;2.20;;;;;;;;;;4986548;28;20197;-83
2022/04/29 09:23:31;;;;;;;3.50;2.47;;;;;;;;;;4980640;28;20200;-84
2022/04/29 09:26:01;;;;;;;3.78;2.50;;;;;;;;;;4988766;28;20198;-83
2022/04/29 09:28:29;;;;;;;2.83;2.50;;;;;;;;;;4977988;28;20223;-84
2022/04/29 09:30:57;;;;;;;6.93;2.40;;;;;;;;;;4976457;28;20220;-84
2022/04/29 09:33:24;;;;;;;3.75;1.65;;;;;;;;;;4990582;28;20201;-83
2022/04/29 09:35:52;;;;;;;4.13;2.58;;;;;;;;;;4970284;28;20681;-82
2022/04/29 09:41:05;;;;;;;3.13;2.83;;;;;;;;;;4976497;28;20229;-82
2022/04/29 09:43:33;;;;;;;2.92;2.22;;;;;;;;;;4970913;28;20201;-82
2022/04/29 09:46:10;;;;;;;4.28;2.42;;;;;;;;;;4981476;28;20208;-82
2022/04/29 09:48:51;;;;;;;2.78;2.15;;;;;;;;;;4976952;28;20201;-82
2022/04/29 09:51:38;;;;;;;4.45;2.95;;;;;;;;;;4979013;28;20319;-86
2022/04/29 09:54:10;;;;;;;7.25;4.40;;;;;;;;;;4956354;28;20202;-84
2022/04/29 09:56:38;;;;;;;2.70;2.35;;;;;;;;;;4973798;28;20201;-86
2022/04/29 09:59:05;;;;;;;4.07;3.25;;;;;;;;;;4971591;28;20201;-84
2022/04/29 10:01:33;;;;;;;4.05;2.30;;;;;;;;;;4974898;28;20567;-84
2022/04/29 10:04:00;;;;;;;5.10;2.83;;;;;;;;;;4970894;28;20205;-82
2022/04/29 10:06:28;;;;;;;3.97;2.53;;;;;;;;;;4976889;28;20604;-82
2022/04/29 10:08:58;;;;;;;5.25;2.63;;;;;;;;;;4970060;28;20198;-82
2022/04/29 10:11:27;;;;;;;4.97;2.90;;;;;;;;;;4975222;28;20228;-83
2022/04/29 10:13:55;;;;;;;4.80;2.65;;;;;;;;;;4971400;28;20212;-83
2022/04/29 10:16:23;;;;;;;2.80;2.47;;;;;;;;;;4970195;28;20200;-83
2022/04/29 10:21:40;;;;;;;4.38;2.53;;;;;;;;;;4981891;28;20204;-84
2022/04/29 10:24:08;;;;;;;3.97;2.80;;;;;;;;;;4970288;28;20763;-82
2022/04/29 10:26:35;;;;;;;3.00;2.35;;;;;;;;;;4987879;28;20624;-83
2022/04/29 10:29:06;;;;;;;4.30;2.63;;;;;;;;;;4957064;28;20205;-84
2022/04/29 10:31:33;;;;;;;2.40;2.05;;;;;;;;;;4969924;28;20221;-83
2022/04/29 10:34:15;;;;;;;4.18;2.60;;;;;;;;;;4982461;28;20670;-83
2022/04/29 10:36:46;;;;;;;3.63;2.40;;;;;;;;;;4968663;28;20213;-83
2022/04/29 10:39:19;;;;;;;3.22;1.95;;;;;;;;;;4981758;28;20210;-82
2022/04/29 10:41:58;;;;;;;7.43;2.65;;;;;;;;;;4973873;28;20393;-83
2022/04/29 10:44:27;;;;;;;3.30;2.03;;;;;;;;;;4976692;28;20208;-84
2022/04/29 10:46:54;;;;;;;3.08;2.15;;;;;;;;;;4985865;28;20655;-83
2022/04/29 10:49:27;;;;;;;5.85;2.80;;;;;;;;;;4977053;28;20664;-83
2022/04/29 10:51:59;;;;;;;3.20;1.95;;;;;;;;;;4969247;28;20218;-84
2022/04/29 10:54:43;;;;;;;3.70;2.40;;;;;;;;;;4977157;28;20209;-84
2022/04/29 10:57:12;;;;;;;2.85;1.95;;;;;;;;;;4959728;28;20224;-84
2022/04/29 10:59:57;;;;;;;2.38;1.80;;;;;;;;;;4970408;28;20210;-86
2022/04/29 11:02:25;;;;;;;2.30;1.98;;;;;;;;;;4962869;28;20655;-85
2022/04/29 11:04:53;;;;;;;5.60;2.20;;;;;;;;;;4971445;28;20205;-85
2022/04/29 11:07:36;;;;;;;2.70;2.30;;;;;;;;;;4962662;28;20209;-84
2022/04/29 11:10:04;;;;;;;3.40;2.47;;;;;;;;;;4977211;28;20657;-85
2022/04/29 11:12:32;;;;;;;3.70;2.50;;;;;;;;;;4982202;28;20215;-84
2022/04/29 11:15:08;;;;;;;3.50;2.10;;;;;;;;;;4973454;28;20197;-83
2022/04/29 11:17:36;;;;;;;4.70;2.88;;;;;;;;;;4975149;28;20648;-84
2022/04/29 11:20:13;;;;;;;3.90;2.40;;;;;;;;;;4973750;28;20200;-82
2022/04/29 11:25:26;;;;;;;3.17;1.65;;;;;;;;;;4987814;28;20637;-82
2022/04/29 11:27:53;;;;;;;3.42;2.28;;;;;;;;;;4978560;28;20202;-82
2022/04/29 11:30:22;;;;;;;3.83;2.45;;;;;;;;;;4965483;28;20226;-81
2022/04/29 11:32:49;;;;;;;2.72;2.33;;;;;;;;;;4974792;28;20209;-84
2022/04/29 11:35:16;;;;;;;7.72;3.42;;;;;;;;;;4977971;28;20212;-86
2022/04/29 11:37:44;;;;;;;5.22;2.53;;;;;;;;;;4967971;28;20664;-82
2022/04/29 11:40:12;;;;;;;2.95;2.28;;;;;;;;;;4968079;28;20421;-83
2022/04/29 11:42:49;;;;;;;4.72;2.28;;;;;;;;;;4984991;28;20240;-83
2022/04/29 11:45:17;;;;;;;11.00;3.85;;;;;;;;;;4964204;28;20213;-83
2022/04/29 11:47:45;;;;;;;3.47;2.60;;;;;;;;;;4982495;28;20208;-84
2022/04/29 11:50:12;;;;;;;3.55;2.75;;;;;;;;;;4970193;28;20206;-82
2022/04/29 11:52:39;;;;;;;5.65;2.72;;;;;;;;;;4977967;28;20725;-83
2022/04/29 11:55:08;;;;;;;4.30;2.58;;;;;;;;;;4982723;28;20326;-83
2022/04/29 11:57:35;;;;;;;4.80;2.58;;;;;;;;;;4975465;28;20209;-83
2022/04/29 12:00:05;;;;;;;3.42;2.30;;;;;;;;;;4960626;28;20196;-83
2022/04/29 12:02:33;;;;;;;6.78;2.45;;;;;;;;;;4977046;28;20204;-83
2022/04/29 12:05:02;;;;;;;3.88;2.25;;;;;;;;;;4970539;28;20216;-83
2022/04/29 12:07:30;;;;;;;4.00;2.20;;;;;;;;;;4980682;28;20678;-83
2022/04/29 12:09:59;;;;;;;2.35;1.80;;;;;;;;;;4971545;28;20289;-81
2022/04/29 12:12:27;;;;;;;4.80;2.63;;;;;;;;;;4986222;28;20290;-83
2022/04/29 12:14:55;;;;;;;6.65;2.90;;;;;;;;;;4964129;28;20212;-83
2022/04/29 12:17:32;;;;;;;4.60;3.30;;;;;;;;;;4974045;28;20213;-84
2022/04/29 12:19:59;;;;;;;3.10;2.83;;;;;;;;;;4964206;28;20251;-83
2022/04/29 12:22:31;;;;;;;4.85;2.75;;;;;;;;;;4980863;28;20205;-83
2022/04/29 12:24:58;;;;;;;5.47;3.10;;;;;;;;;;4951730;28;20206;-84
2022/04/29 12:27:32;;;;;;;4.28;3.67;;;;;;;;;;4975919;28;20200;-84
2022/04/29 12:35:29;;;;;;;5.13;2.88;;;;;;;;;;4975262;28;20201;-81
2022/04/29 12:37:58;;;;;;;5.95;3.67;;;;;;;;;;4979893;28;20654;-79
2022/04/29 12:40:29;;;;;;;12.18;6.60;;;;;;;;;;4956930;28;20487;-81
2022/04/29 12:43:09;;;;;;;14.73;6.88;;;;;;;;;;4979611;28;20229;-81
2022/04/29 12:45:36;;;;;;;7.60;5.38;;;;;;;;;;4975482;28;20200;-82
2022/04/29 12:48:05;;;;;;;5.32;4.82;;;;;;;;;;4984117;28;20288;-82
2022/04/29 12:50:36;;;;;;;11.85;6.60;;;;;;;;;;4986748;28;20205;-82
2022/04/29 12:53:05;;;;;;;8.52;5.15;;;;;;;;;;4970044;28;20192;-82
2022/04/29 12:55:35;;;;;;;9.75;5.68;;;;;;;;;;4995766;28;20292;-82
2022/04/29 12:58:06;;;;;;;7.40;5.68;;;;;;;;;;4990044;28;20652;-80
2022/04/29 13:00:34;;;;;;;12.13;5.65;;;;;;;;;;4976790;28;20209;-82
2022/04/29 13:03:02;;;;;;;8.07;4.95;;;;;;;;;;4979663;28;20611;-81
2022/04/29 13:05:29;;;;;;;6.35;3.90;;;;;;;;;;4983786;28;20194;-82
2022/04/29 13:07:57;;;;;;;5.38;4.35;;;;;;;;;;4985466;28;20264;-81
2022/04/29 13:10:25;;;;;;;6.65;3.80;;;;;;;;;;4985562;28;20205;-82
2022/04/29 13:12:54;;;;;;;7.45;4.53;;;;;;;;;;4978120;28;20205;-81
2022/04/29 13:15:21;;;;;;;6.63;3.85;;;;;;;;;;4974783;28;20691;-83
2022/04/29 13:17:48;;;;;;;9.98;4.43;;;;;;;;;;4993114;28;20192;-84
2022/04/29 13:20:15;;;;;;;6.88;4.78;;;;;;;;;;4993908;28;20599;-83
2022/04/29 13:22:43;;;;;;;5.65;4.30;;;;;;;;;;4986215;28;20194;-83
2022/04/29 13:25:10;;;;;;;4.63;3.75;;;;;;;;;;4969867;28;20637;-83
2022/04/29 13:27:38;;;;;;;13.18;6.75;;;;;;;;;;4994812;28;20196;-83
2022/04/29 13:30:06;;;;;;;9.43;4.90;;;;;;;;;;4978164;28;20205;-83
2022/04/29 13:32:33;;;;;;;6.07;4.93;;;;;;;;;;4974151;28;20221;-83
2022/04/29 13:35:00;;;;;;;6.90;3.97;;;;;;;;;;4974856;28;20203;-83
2022/04/29 13:37:29;;;;;;;4.70;4.07;;;;;;;;;;4974369;28;20256;-83
2022/04/29 13:39:56;;;;;;;6.43;4.43;;;;;;;;;;4975813;28;20205;-83
2022/04/29 13:42:23;;;;;;;6.10;4.20;;;;;;;;;;4982534;28;20232;-83
2022/04/29 13:44:53;;;;;;;8.65;5.20;;;;;;;;;;4969966;28;20201;-83
2022/04/29 13:47:20;;;;;;;6.28;4.15;;;;;;;;;;4982003;28;20198;-83
2022/04/29 13:49:47;;;;;;;7.70;4.13;;;;;;;;;;4979207;28;20653;-82
2022/04/29 13:55:01;;;;;;;6.85;4.30;;;;;;;;;;4976682;28;20192;-81
2022/04/29 13:57:28;;;;;;;4.80;2.97;;;;;;;;;;4991280;28;20747;-82
2022/04/29 13:59:57;;;;;;;7.07;4.82;;;;;;;;;;4977695;28;20197;-83
2022/04/29 14:02:25;;;;;;;6.50;3.25;;;;;;;;;;4978622;28;20198;-82
2022/04/29 14:04:52;;;;;;;3.45;3.15;;;;;;;;;;4974736;28;21473;-82
2022/04/29 14:07:19;;;;;;;3.90;3.10;;;;;;;;;;4966505;28;20665;-82
2022/04/29 14:09:47;;;;;;;5.95;3.50;;;;;;;;;;4968815;28;20201;-82
2022/04/29 14:12:14;;;;;;;5.40;3.25;;;;;;;;;;4991549;28;20695;-82
2022/04/29 14:14:41;;;;;;;7.25;3.80;;;;;;;;;;4966854;28;20657;-82
2022/04/29 14:17:09;;;;;;;4.57;3.30;;;;;;;;;;4975430;28;20253;-82
2022/04/29 14:19:37;;;;;;;8.45;3.10;;;;;;;;;;4974523;28;20511;-82
2022/04/29 14:22:04;;;;;;;3.17;2.83;;;;;;;;;;4967512;28;20554;-83
2022/04/29 14:24:33;;;;;;;3.22;2.90;;;;;;;;;;4980074;28;20201;-82
2022/04/29 14:27:00;;;;;;;5.18;3.60;;;;;;;;;;4976455;28;20207;-81
2022/04/29 14:29:28;;;;;;;5.05;4.20;;;;;;;;;;4974060;28;20205;-81
2022/04/29 14:31:56;;;;;;;5.80;3.70;;;;;;;;;;4973622;28;20295;-81
2022/04/29 14:34:26;;;;;;;5.22;3.10;;;;;;;;;;4976403;28;20230;-85
2022/04/29 14:36:53;;;;;;;4.15;3.10;;;;;;;;;;4973872;28;20557;-82
2022/04/29 14:39:20;;;;;;;3.90;3.28;;;;;;;;;;4971888;28;20326;-82
2022/04/29 14:41:48;;;;;;;3.97;3.67;;;;;;;;;;4976085;28;20722;-81
2022/04/29 14:44:16;;;;;;;3.10;2.78;;;;;;;;;;4977291;28;20660;-82
2022/04/29 14:46:43;;;;;;;7.82;3.65;;;;;;;;;;4976849;28;20291;-81
2022/04/29 14:49:10;;;;;;;5.80;2.85;;;;;;;;;;4974445;28;20200;-81
2022/04/29 14:51:39;;;;;;;5.80;3.92;;;;;;;;;;4981287;28;20251;-83
2022/04/29 14:54:07;;;;;;;5.32;3.55;;;;;;;;;;4970895;28;20216;-81
2022/04/29 14:56:34;;;;;;;6.97;3.97;;;;;;;;;;4979725;28;20204;-81
2022/04/29 14:59:02;;;;;;;4.90;4.25;;;;;;;;;;4973911;28;20202;-81
2022/04/29 15:01:29;;;;;;;5.32;3.90;;;;;;;;;;4980695;28;20248;-81
2022/04/29 15:03:56;;;;;;;3.97;2.40;;;;;;;;;;4977675;28;20194;-82
2022/04/29 15:06:24;;;;;;;5.10;3.30;;;;;;;;;;4985536;28;20232;-81
2022/04/29 15:15:34;;;;;;;3.88;3.00;;;;;;;;;;4965289;28;20361;-81
2022/04/29 15:17:15;;;;;;;4.82;2.50;;;;;;;;;;4985203;28;20215;-81
2022/04/29 15:19:43;;;;;;;6.30;3.40;;;;;;;;;;4983385;28;20206;-82
2022/04/29 15:22:10;;;;;;;4.28;2.65;;;;;;;;;;4989833;28;20201;-81
2022/04/29 15:24:38;;;;;;;3.55;2.28;;;;;;;;;;4982289;28;20212;-82
2022/04/29 15:27:06;;;;;;;3.45;3.15;;;;;;;;;;4984908;28;20193;-81
2022/04/29 15:29:33;;;;;;;3.95;3.10;;;;;;;;;;4979555;28;20205;-82
2022/04/29 15:32:00;;;;;;;5.38;4.65;;;;;;;;;;4971185;28;20217;-81